createdAt,value
2022-10-10T00:00:26.209Z,54.84
2022-10-10T00:01:26.285Z,54.31
2022-10-10T00:02:26.186Z,53.84
2022-10-10T00:03:26.179Z,60.08
2022-10-10T00:04:26.178Z,52.12
2022-10-10T00:05:26.160Z,53.07
2022-10-10T00:06:30.372Z,54.06
2022-10-10T00:07:28.142Z,52.67
2022-10-10T00:08:26.144Z,58.17
2022-10-10T00:09:26.130Z,56.92
2022-10-10T00:10:26.122Z,59.04
2022-10-10T00:11:26.143Z,52.69
2022-10-10T00:12:26.109Z,55.83
2022-10-10T00:13:26.097Z,55.86
2022-10-10T00:14:27.584Z,53.25
2022-10-10T00:15:26.077Z,56.61
2022-10-10T00:16:26.076Z,52.78
2022-10-10T00:17:26.075Z,55.81
2022-10-10T00:18:26.062Z,50.94
2022-10-10T00:19:26.049Z,55.57
2022-10-10T00:20:26.044Z,50.61
2022-10-10T00:21:26.041Z,53.82
2022-10-10T00:22:26.027Z,50.31
2022-10-10T00:23:26.679Z,49.81
2022-10-10T00:24:26.008Z,52.35
2022-10-10T00:25:26.000Z,49.75
2022-10-10T00:26:25.997Z,54.09
2022-10-10T00:27:25.981Z,53.22
2022-10-10T00:28:26.012Z,51.30
2022-10-10T00:31:25.928Z,53.92
2022-10-10T00:32:25.935Z,52.43
2022-10-10T00:33:25.920Z,53.54
2022-10-10T00:34:25.906Z,51.59
2022-10-10T00:35:25.896Z,56.41
2022-10-10T00:36:25.912Z,56.97
2022-10-10T00:37:25.880Z,51.00
2022-10-10T00:38:26.976Z,52.03
2022-10-10T00:39:26.972Z,53.75
2022-10-10T00:40:26.959Z,55.31
2022-10-10T00:41:26.969Z,54.07
2022-10-10T00:42:26.947Z,52.78
2022-10-10T00:43:26.928Z,54.54
2022-10-10T00:44:26.929Z,58.17
2022-10-10T00:45:26.915Z,56.17
2022-10-10T00:46:26.907Z,48.18
2022-10-10T00:47:26.907Z,48.08
2022-10-10T00:48:26.907Z,57.13
2022-10-10T00:49:26.884Z,56.88
2022-10-10T00:50:26.873Z,51.43
2022-10-10T00:51:26.880Z,54.54
2022-10-10T00:52:26.855Z,51.98
2022-10-10T00:53:26.861Z,51.86
2022-10-10T00:54:26.842Z,55.70
2022-10-10T00:55:26.836Z,55.67
2022-10-10T00:56:26.841Z,51.20
2022-10-10T00:57:26.818Z,51.29
2022-10-10T00:58:26.822Z,57.10
2022-10-10T00:59:26.806Z,52.27
2022-10-10T01:00:26.809Z,52.01
2022-10-10T01:01:28.282Z,50.95
2022-10-10T01:02:26.783Z,51.00
2022-10-10T01:03:26.780Z,58.72
2022-10-10T01:04:27.332Z,58.76
2022-10-10T01:05:26.760Z,59.84
2022-10-10T01:06:26.755Z,51.46
2022-10-10T01:07:26.740Z,51.50
2022-10-10T01:08:26.740Z,53.64
2022-10-10T01:09:26.728Z,56.80
2022-10-10T01:10:26.721Z,51.85
2022-10-10T01:11:26.713Z,52.19
2022-10-10T01:12:26.725Z,54.43
2022-10-10T01:13:26.708Z,58.83
2022-10-10T01:14:26.698Z,53.64
2022-10-10T01:15:26.680Z,54.85
2022-10-10T01:16:26.671Z,51.76
2022-10-10T01:17:26.663Z,57.60
2022-10-10T01:18:26.665Z,55.08
2022-10-10T01:19:26.645Z,51.07
2022-10-10T01:20:26.655Z,58.91
2022-10-10T01:21:26.631Z,54.81
2022-10-10T01:22:26.623Z,52.30
2022-10-10T01:23:26.627Z,54.87
2022-10-10T01:24:26.607Z,54.23
2022-10-10T01:25:26.615Z,53.50
2022-10-10T01:26:26.605Z,54.02
2022-10-10T01:27:31.175Z,55.36
2022-10-10T01:28:27.596Z,58.87
2022-10-10T01:29:26.570Z,58.24
2022-10-10T01:30:26.563Z,54.19
2022-10-10T01:31:26.560Z,51.31
2022-10-10T01:32:26.547Z,54.46
2022-10-10T01:33:26.542Z,55.79
2022-10-10T01:34:26.535Z,54.73
2022-10-10T01:35:26.531Z,52.54
2022-10-10T01:36:26.511Z,52.64
2022-10-10T01:37:26.518Z,56.60
2022-10-10T01:38:26.503Z,54.63
2022-10-10T01:39:26.496Z,55.09
2022-10-10T01:40:26.495Z,56.53
2022-10-10T01:41:26.478Z,58.50
2022-10-10T01:42:26.477Z,53.26
2022-10-10T01:43:26.462Z,54.42
2022-10-10T01:44:26.456Z,53.16
2022-10-10T01:45:26.443Z,57.61
2022-10-10T01:46:26.459Z,53.07
2022-10-10T01:47:26.452Z,55.51
2022-10-10T01:48:26.434Z,55.51
2022-10-10T01:49:26.419Z,53.93
2022-10-10T01:50:26.407Z,53.98
2022-10-10T01:51:26.408Z,51.78
2022-10-10T01:52:26.435Z,51.95
2022-10-10T01:53:26.390Z,52.36
2022-10-10T01:54:26.376Z,55.56
2022-10-10T01:55:26.372Z,57.56
2022-10-10T01:56:26.362Z,62.25
2022-10-10T01:57:26.369Z,54.48
2022-10-10T01:58:26.349Z,58.18
2022-10-10T01:59:26.349Z,58.61
2022-10-10T02:00:26.624Z,60.85
2022-10-10T02:01:26.323Z,52.57
2022-10-10T02:02:27.224Z,52.49
2022-10-10T02:03:27.415Z,55.66
2022-10-10T02:04:26.300Z,53.26
2022-10-10T02:05:26.293Z,57.21
2022-10-10T02:06:26.285Z,56.88
2022-10-10T02:07:26.296Z,53.21
2022-10-10T02:08:26.272Z,57.67
2022-10-10T02:09:26.282Z,55.31
2022-10-10T02:10:26.252Z,55.64
2022-10-10T02:11:26.257Z,55.97
2022-10-10T02:12:26.255Z,56.80
2022-10-10T02:13:26.236Z,51.07
2022-10-10T02:14:26.331Z,54.53
2022-10-10T02:15:26.218Z,55.18
2022-10-10T02:16:26.212Z,57.55
2022-10-10T02:17:26.205Z,54.94
2022-10-10T02:18:26.189Z,54.84
2022-10-10T02:19:26.182Z,56.76
2022-10-10T02:20:26.174Z,62.29
2022-10-10T02:21:26.166Z,60.82
2022-10-10T02:22:26.186Z,57.69
2022-10-10T02:23:26.273Z,52.76
2022-10-10T02:24:26.145Z,54.19
2022-10-10T02:25:26.139Z,57.39
2022-10-10T02:26:26.126Z,55.85
2022-10-10T02:27:26.121Z,56.00
2022-10-10T02:28:26.182Z,55.66
2022-10-10T02:29:26.111Z,52.57
2022-10-10T02:30:26.111Z,56.28
2022-10-10T02:31:26.087Z,51.93
2022-10-10T02:32:26.083Z,60.03
2022-10-10T02:33:26.070Z,56.72
2022-10-10T02:34:26.065Z,57.34
2022-10-10T02:35:27.074Z,55.07
2022-10-10T02:36:26.049Z,52.72
2022-10-10T02:37:26.041Z,56.90
2022-10-10T02:38:26.078Z,59.35
2022-10-10T02:39:26.020Z,55.12
2022-10-10T02:40:26.026Z,57.05
2022-10-10T02:41:26.015Z,55.25
2022-10-10T02:42:25.998Z,59.00
2022-10-10T02:43:25.997Z,59.53
2022-10-10T02:44:25.982Z,53.94
2022-10-10T02:45:25.978Z,59.21
2022-10-10T02:46:25.987Z,55.95
2022-10-10T02:47:26.153Z,56.93
2022-10-10T02:48:25.953Z,57.67
2022-10-10T02:49:26.959Z,54.60
2022-10-10T02:50:25.962Z,55.04
2022-10-10T02:51:30.194Z,60.39
2022-10-10T02:52:27.077Z,58.86
2022-10-10T02:53:27.733Z,60.50
2022-10-10T02:54:25.909Z,58.46
2022-10-10T02:55:25.902Z,62.83
2022-10-10T02:56:25.898Z,62.87
2022-10-10T02:57:25.894Z,58.22
2022-10-10T02:58:25.890Z,58.95
2022-10-10T02:59:25.871Z,57.29
2022-10-10T03:00:25.910Z,61.07
2022-10-10T03:01:25.925Z,60.75
2022-10-10T03:02:25.865Z,60.41
2022-10-10T03:03:25.842Z,61.41
2022-10-10T03:04:25.837Z,56.61
2022-10-10T03:05:25.827Z,52.29
2022-10-10T03:06:25.817Z,58.20
2022-10-10T03:07:25.813Z,56.74
2022-10-10T03:08:25.795Z,59.05
2022-10-10T03:09:25.788Z,63.01
2022-10-10T03:10:26.796Z,66.48
2022-10-10T03:11:25.783Z,64.77
2022-10-10T03:12:25.771Z,60.20
2022-10-10T03:13:25.766Z,61.56
2022-10-10T03:14:25.760Z,62.43
2022-10-10T03:15:25.747Z,63.09
2022-10-10T03:16:25.740Z,61.67
2022-10-10T03:17:25.736Z,60.66
2022-10-10T03:18:25.728Z,64.45
2022-10-10T03:19:25.719Z,64.53
2022-10-10T03:20:25.706Z,64.72
2022-10-10T03:21:25.702Z,63.23
2022-10-10T03:22:25.697Z,61.29
2022-10-10T03:23:25.682Z,64.02
2022-10-10T03:24:25.681Z,62.27
2022-10-10T03:25:25.665Z,62.39
2022-10-10T03:26:25.669Z,61.37
2022-10-10T03:27:25.653Z,63.40
2022-10-10T03:28:25.675Z,59.71
2022-10-10T03:29:25.639Z,60.31
2022-10-10T03:30:25.639Z,60.72
2022-10-10T03:31:25.640Z,61.12
2022-10-10T03:32:25.611Z,61.98
2022-10-10T03:33:25.616Z,64.96
2022-10-10T03:34:25.597Z,63.07
2022-10-10T03:35:25.600Z,64.51
2022-10-10T03:36:25.587Z,66.95
2022-10-10T03:37:25.578Z,66.23
2022-10-10T03:38:25.592Z,65.85
2022-10-10T03:39:25.599Z,66.11
2022-10-10T03:40:25.561Z,68.89
2022-10-10T03:41:25.555Z,65.57
2022-10-10T03:42:25.535Z,60.52
2022-10-10T03:43:25.527Z,64.58
2022-10-10T03:44:25.532Z,61.04
2022-10-10T03:45:25.510Z,66.66
2022-10-10T03:46:25.514Z,67.02
2022-10-10T03:47:25.495Z,66.33
2022-10-10T03:48:25.500Z,68.64
2022-10-10T03:49:25.487Z,66.14
2022-10-10T03:50:25.476Z,67.31
2022-10-10T03:51:25.463Z,63.53
2022-10-10T03:52:25.463Z,61.24
2022-10-10T03:53:25.453Z,66.31
2022-10-10T03:54:25.443Z,62.79
2022-10-10T03:55:25.444Z,73.64
2022-10-10T03:56:25.435Z,61.39
2022-10-10T03:57:25.422Z,65.84
2022-10-10T03:58:25.414Z,70.67
2022-10-10T03:59:25.417Z,63.60
2022-10-10T04:00:25.402Z,65.86
2022-10-10T04:01:25.437Z,63.60
2022-10-10T04:02:25.385Z,63.82
2022-10-10T04:03:25.366Z,63.76
2022-10-10T04:04:25.365Z,61.52
2022-10-10T04:05:25.354Z,63.73
2022-10-10T04:06:25.365Z,69.53
2022-10-10T04:07:25.337Z,65.15
2022-10-10T04:08:25.329Z,67.89
2022-10-10T04:09:26.284Z,69.10
2022-10-10T04:10:25.328Z,66.11
2022-10-10T04:11:25.315Z,63.71
2022-10-10T04:12:25.301Z,67.21
2022-10-10T04:13:25.291Z,66.67
2022-10-10T04:14:25.284Z,67.43
2022-10-10T04:15:25.281Z,64.34
2022-10-10T04:16:25.272Z,62.88
2022-10-10T04:17:25.261Z,62.46
2022-10-10T04:18:25.249Z,63.94
2022-10-10T04:19:25.239Z,64.26
2022-10-10T04:20:25.241Z,65.40
2022-10-10T04:21:25.234Z,64.68
2022-10-10T04:22:25.320Z,71.54
2022-10-10T04:23:25.218Z,66.46
2022-10-10T04:24:25.204Z,66.43
2022-10-10T04:25:25.207Z,62.22
2022-10-10T04:26:25.242Z,63.80
2022-10-10T04:27:25.198Z,64.14
2022-10-10T04:28:25.215Z,65.51
2022-10-10T04:29:25.165Z,63.96
2022-10-10T04:30:25.161Z,63.96
2022-10-10T04:31:25.170Z,63.19
2022-10-10T04:32:25.148Z,65.40
2022-10-10T04:33:25.135Z,61.24
2022-10-10T04:34:25.131Z,61.92
2022-10-10T04:35:25.129Z,63.88
2022-10-10T04:36:25.113Z,65.51
2022-10-10T04:37:25.116Z,61.50
2022-10-10T04:38:25.111Z,63.21
2022-10-10T04:39:25.092Z,65.84
2022-10-10T04:40:26.837Z,62.92
2022-10-10T04:41:26.076Z,63.75
2022-10-10T04:42:25.075Z,65.87
2022-10-10T04:43:25.067Z,66.25
2022-10-10T04:44:25.059Z,63.60
2022-10-10T04:45:25.058Z,63.81
2022-10-10T04:46:25.034Z,61.55
2022-10-10T04:47:25.029Z,61.23
2022-10-10T04:48:25.027Z,64.86
2022-10-10T04:49:25.016Z,66.10
2022-10-10T04:50:25.037Z,67.29
2022-10-10T04:51:25.001Z,67.65
2022-10-10T04:52:24.996Z,63.97
2022-10-10T04:53:24.985Z,66.27
2022-10-10T04:54:25.872Z,66.89
2022-10-10T04:55:24.974Z,66.54
2022-10-10T04:56:24.961Z,65.03
2022-10-10T04:57:25.795Z,66.02
2022-10-10T04:58:24.958Z,63.19
2022-10-10T04:59:24.941Z,65.91
2022-10-10T05:00:24.937Z,67.12
2022-10-10T05:01:25.098Z,66.92
2022-10-10T05:02:24.912Z,65.65
2022-10-10T05:03:24.933Z,65.60
2022-10-10T05:04:24.904Z,68.97
2022-10-10T05:05:24.892Z,63.96
2022-10-10T05:06:24.877Z,65.33
2022-10-10T05:07:24.889Z,64.89
2022-10-10T05:08:24.867Z,65.77
2022-10-10T05:09:24.879Z,64.57
2022-10-10T05:10:26.457Z,65.85
2022-10-10T05:11:24.895Z,66.93
2022-10-10T05:12:24.864Z,66.41
2022-10-10T05:13:24.829Z,65.65
2022-10-10T05:14:24.836Z,67.41
2022-10-10T05:15:24.838Z,65.91
2022-10-10T05:16:24.809Z,65.82
2022-10-10T05:17:24.804Z,65.18
2022-10-10T05:18:24.787Z,65.84
2022-10-10T05:19:24.803Z,66.14
2022-10-10T05:20:24.770Z,66.82
2022-10-10T05:21:24.781Z,69.69
2022-10-10T05:22:24.791Z,70.09
2022-10-10T05:23:24.744Z,71.10
2022-10-10T05:24:24.746Z,68.61
2022-10-10T05:25:24.748Z,71.61
2022-10-10T05:26:24.735Z,68.40
2022-10-10T05:27:24.721Z,67.86
2022-10-10T05:28:24.752Z,66.50
2022-10-10T05:29:24.704Z,69.13
2022-10-10T05:30:24.712Z,67.93
2022-10-10T05:31:24.721Z,69.64
2022-10-10T05:32:24.676Z,68.70
2022-10-10T05:33:25.380Z,67.82
2022-10-10T05:34:24.660Z,65.90
2022-10-10T05:35:24.652Z,67.56
2022-10-10T05:36:24.662Z,67.56
2022-10-10T05:37:24.644Z,66.96
2022-10-10T05:38:24.630Z,69.37
2022-10-10T05:39:24.635Z,67.54
2022-10-10T05:40:24.617Z,68.68
2022-10-10T05:41:24.605Z,68.10
2022-10-10T05:42:24.611Z,66.63
2022-10-10T05:43:24.618Z,68.80
2022-10-10T05:44:24.591Z,67.23
2022-10-10T05:45:25.311Z,67.89
2022-10-10T05:46:25.631Z,65.54
2022-10-10T05:47:27.808Z,66.81
2022-10-10T05:48:25.555Z,66.57
2022-10-10T05:49:24.572Z,65.63
2022-10-10T05:50:24.546Z,66.27
2022-10-10T05:51:24.534Z,66.77
2022-10-10T05:52:24.522Z,65.68
2022-10-10T05:53:24.515Z,67.79
2022-10-10T05:54:24.510Z,65.94
2022-10-10T05:55:24.502Z,66.51
2022-10-10T05:56:24.488Z,65.17
2022-10-10T05:57:24.485Z,69.69
2022-10-10T05:58:24.483Z,68.76
2022-10-10T05:59:24.470Z,64.83
2022-10-10T06:00:24.461Z,66.87
2022-10-10T06:01:24.452Z,68.54
2022-10-10T06:02:24.490Z,65.91
2022-10-10T06:03:24.436Z,66.60
2022-10-10T06:04:24.437Z,66.71
2022-10-10T06:05:24.427Z,65.18
2022-10-10T06:06:24.416Z,66.03
2022-10-10T06:07:40.380Z,67.42
2022-10-10T06:08:26.394Z,68.89
2022-10-10T06:09:24.388Z,67.87
2022-10-10T06:10:25.397Z,66.20
2022-10-10T06:11:24.374Z,65.81
2022-10-10T06:12:24.366Z,66.14
2022-10-10T06:13:24.703Z,66.73
2022-10-10T06:14:25.358Z,64.32
2022-10-10T06:15:24.342Z,67.65
2022-10-10T06:16:24.339Z,67.13
2022-10-10T06:17:24.324Z,64.58
2022-10-10T06:18:24.318Z,68.06
2022-10-10T06:19:24.317Z,67.47
2022-10-10T06:20:24.401Z,67.24
2022-10-10T06:21:24.298Z,66.16
2022-10-10T06:22:24.284Z,66.87
2022-10-10T06:23:24.288Z,65.72
2022-10-10T06:24:24.348Z,66.40
2022-10-10T06:25:39.375Z,65.25
2022-10-10T06:26:26.257Z,65.77
2022-10-10T06:27:24.516Z,63.04
2022-10-10T06:28:24.267Z,62.79
2022-10-10T06:29:24.243Z,64.02
2022-10-10T06:30:24.234Z,67.16
2022-10-10T06:31:24.211Z,67.79
2022-10-10T06:32:24.203Z,65.79
2022-10-10T06:33:24.194Z,68.26
2022-10-10T06:34:24.181Z,65.73
2022-10-10T06:35:24.184Z,65.09
2022-10-10T06:36:24.171Z,67.18
2022-10-10T06:37:24.162Z,66.69
2022-10-10T06:38:24.148Z,67.65
2022-10-10T06:39:24.149Z,65.57
2022-10-10T06:40:24.158Z,66.82
2022-10-10T06:41:24.124Z,66.15
2022-10-10T06:42:24.943Z,64.50
2022-10-10T06:43:24.107Z,67.18
2022-10-10T06:44:24.132Z,63.50
2022-10-10T06:45:24.145Z,65.40
2022-10-10T06:46:24.093Z,63.67
2022-10-10T06:47:24.079Z,65.23
2022-10-10T06:48:24.077Z,67.12
2022-10-10T06:49:24.069Z,65.67
2022-10-10T06:50:24.054Z,66.99
2022-10-10T06:51:24.035Z,65.66
2022-10-10T06:52:25.047Z,65.88
2022-10-10T06:53:24.040Z,66.08
2022-10-10T06:54:24.022Z,66.12
2022-10-10T06:55:24.413Z,66.35
2022-10-10T06:56:27.644Z,67.53
2022-10-10T06:57:26.892Z,65.32
2022-10-10T06:58:25.298Z,67.59
2022-10-10T06:59:24.014Z,65.81
2022-10-10T07:00:24.144Z,66.72
2022-10-10T07:01:24.027Z,67.22
2022-10-10T07:02:23.984Z,66.84
2022-10-10T07:03:23.951Z,66.76
2022-10-10T07:04:23.957Z,65.27
2022-10-10T07:05:24.897Z,66.76
2022-10-10T07:06:23.940Z,66.70
2022-10-10T07:07:23.945Z,66.80
2022-10-10T07:08:23.915Z,65.10
2022-10-10T07:09:23.909Z,66.06
2022-10-10T07:10:23.898Z,69.36
2022-10-10T07:11:23.895Z,65.78
2022-10-10T07:12:23.881Z,64.93
2022-10-10T07:13:23.878Z,64.91
2022-10-10T07:14:23.865Z,63.77
2022-10-10T07:15:23.863Z,65.57
2022-10-10T07:16:23.851Z,64.77
2022-10-10T07:17:23.840Z,63.86
2022-10-10T07:18:23.831Z,65.45
2022-10-10T07:19:23.827Z,66.63
2022-10-10T07:20:23.886Z,68.88
2022-10-10T07:21:23.811Z,68.48
2022-10-10T07:22:23.798Z,66.68
2022-10-10T07:23:23.799Z,66.90
2022-10-10T07:24:23.821Z,65.24
2022-10-10T07:25:24.428Z,65.62
2022-10-10T07:26:24.785Z,65.32
2022-10-10T07:27:23.761Z,65.40
2022-10-10T07:28:23.793Z,65.35
2022-10-10T07:29:23.744Z,66.16
2022-10-10T07:30:24.937Z,67.77
2022-10-10T07:31:23.740Z,63.40
2022-10-10T07:32:24.349Z,67.46
2022-10-10T07:33:23.712Z,65.71
2022-10-10T07:34:23.702Z,66.05
2022-10-10T07:35:23.690Z,64.48
2022-10-10T07:36:23.704Z,66.62
2022-10-10T07:37:23.684Z,68.40
2022-10-10T07:38:23.664Z,67.91
2022-10-10T07:39:23.686Z,66.18
2022-10-10T07:40:23.695Z,65.89
2022-10-10T07:41:23.648Z,65.39
2022-10-10T07:42:23.636Z,66.93
2022-10-10T07:43:23.687Z,63.05
2022-10-10T07:44:23.625Z,67.78
2022-10-10T07:45:23.609Z,68.35
2022-10-10T07:46:23.603Z,64.88
2022-10-10T07:47:23.585Z,67.36
2022-10-10T07:48:23.601Z,64.52
2022-10-10T07:49:23.577Z,65.32
2022-10-10T07:50:23.593Z,67.10
2022-10-10T07:51:23.559Z,66.96
2022-10-10T07:52:23.586Z,65.64
2022-10-10T07:53:23.553Z,64.59
2022-10-10T07:54:23.551Z,67.14
2022-10-10T07:55:23.543Z,65.34
2022-10-10T07:56:23.527Z,66.53
2022-10-10T07:57:23.525Z,67.11
2022-10-10T07:58:23.523Z,63.85
2022-10-10T07:59:23.508Z,64.96
2022-10-10T08:00:23.560Z,66.48
2022-10-10T08:01:23.539Z,65.90
2022-10-10T08:02:23.475Z,67.26
2022-10-10T08:03:24.440Z,66.00
2022-10-10T08:04:23.488Z,67.56
2022-10-10T08:05:23.465Z,65.95
2022-10-10T08:06:23.455Z,66.02
2022-10-10T08:07:23.446Z,65.44
2022-10-10T08:08:23.462Z,68.03
2022-10-10T08:09:23.442Z,67.79
2022-10-10T08:10:23.479Z,66.90
2022-10-10T08:11:23.415Z,64.60
2022-10-10T08:12:23.482Z,66.96
2022-10-10T08:13:23.400Z,72.80
2022-10-10T08:14:23.435Z,77.23
2022-10-10T08:15:23.388Z,75.71
2022-10-10T08:16:23.368Z,77.64
2022-10-10T08:17:23.373Z,77.43
2022-10-10T08:18:23.408Z,75.66
2022-10-10T08:19:23.375Z,75.13
2022-10-10T08:20:23.346Z,79.59
2022-10-10T08:21:23.333Z,77.27
2022-10-10T08:22:23.328Z,75.80
2022-10-10T08:23:23.948Z,73.78
2022-10-10T08:24:23.316Z,75.03
2022-10-10T08:25:23.311Z,73.58
2022-10-10T08:26:23.297Z,74.41
2022-10-10T08:27:23.313Z,74.28
2022-10-10T08:28:23.323Z,74.41
2022-10-10T08:29:23.273Z,69.64
2022-10-10T08:30:23.272Z,69.89
2022-10-10T08:31:23.265Z,72.75
2022-10-10T08:32:23.253Z,73.24
2022-10-10T08:33:23.241Z,73.22
2022-10-10T08:34:23.240Z,71.59
2022-10-10T08:35:26.043Z,71.36
2022-10-10T08:36:23.211Z,77.04
2022-10-10T08:37:28.452Z,76.10
2022-10-10T08:38:25.208Z,75.31
2022-10-10T08:39:24.340Z,75.94
2022-10-10T08:40:23.213Z,75.39
2022-10-10T08:41:24.025Z,74.46
2022-10-10T08:42:23.176Z,74.35
2022-10-10T08:43:23.225Z,75.56
2022-10-10T08:44:23.160Z,77.91
2022-10-10T08:45:23.920Z,76.36
2022-10-10T08:46:23.205Z,78.23
2022-10-10T08:47:23.144Z,78.00
2022-10-10T08:48:55.881Z,76.13
2022-10-10T08:49:23.113Z,76.26
2022-10-10T08:50:23.103Z,73.98
2022-10-10T08:51:23.134Z,75.27
2022-10-10T08:52:23.101Z,74.97
2022-10-10T08:53:23.091Z,70.82
2022-10-10T08:54:23.078Z,71.32
2022-10-10T08:55:23.061Z,71.47
2022-10-10T08:56:23.071Z,70.26
2022-10-10T08:57:23.070Z,69.64
2022-10-10T08:58:23.037Z,70.45
2022-10-10T08:59:23.039Z,72.11
2022-10-10T09:00:27.906Z,71.46
2022-10-10T09:01:25.084Z,70.29
2022-10-10T09:02:29.639Z,72.66
2022-10-10T09:03:24.011Z,71.44
2022-10-10T09:04:23.039Z,70.58
2022-10-10T09:05:23.122Z,69.86
2022-10-10T09:06:22.975Z,69.94
2022-10-10T09:09:41.849Z,70.89
2022-10-10T09:10:42.933Z,72.79
2022-10-10T09:14:04.006Z,75.00
2022-10-10T09:17:14.690Z,71.85
2022-10-10T09:18:21.637Z,69.33
2022-10-10T09:19:18.296Z,70.50
2022-10-10T09:20:21.280Z,69.76
2022-10-10T09:23:41.121Z,73.15
2022-10-10T09:24:43.538Z,72.12
2022-10-10T09:25:43.062Z,70.74
2022-10-10T09:26:42.202Z,71.60
2022-10-10T09:27:42.198Z,72.07
2022-10-10T09:28:42.229Z,71.41
2022-10-10T09:29:42.980Z,70.28
2022-10-10T09:30:42.157Z,70.86
2022-10-10T09:31:42.151Z,70.80
2022-10-10T09:32:42.146Z,71.50
2022-10-10T09:33:42.133Z,71.73
2022-10-10T09:34:42.104Z,71.76
2022-10-10T09:35:43.081Z,72.03
2022-10-10T09:36:42.098Z,72.79
2022-10-10T09:37:47.484Z,72.55
2022-10-10T09:38:44.088Z,72.50
2022-10-10T09:39:42.087Z,71.50
2022-10-10T09:40:42.084Z,71.32
2022-10-10T09:41:42.058Z,71.48
2022-10-10T09:42:42.050Z,73.50
2022-10-10T09:43:44.981Z,71.75
2022-10-10T09:46:52.813Z,74.60
2022-10-10T09:47:50.938Z,73.18
2022-10-10T09:48:51.742Z,73.35
2022-10-10T09:49:51.003Z,73.60
2022-10-10T09:50:51.838Z,72.35
2022-10-10T09:51:50.911Z,73.91
2022-10-10T09:52:50.882Z,74.20
2022-10-10T09:53:51.750Z,73.80
2022-10-10T09:54:51.848Z,73.85
2022-10-10T09:55:51.919Z,72.55
2022-10-10T09:56:50.874Z,73.15
2022-10-10T09:57:51.003Z,73.59
2022-10-10T09:58:56.326Z,73.10
2022-10-10T09:59:52.326Z,72.89
2022-10-10T10:00:51.880Z,74.03
2022-10-10T10:01:51.048Z,74.49
2022-10-10T10:02:53.122Z,72.27
2022-10-10T10:03:50.807Z,73.94
2022-10-10T10:04:53.830Z,73.78
2022-10-10T10:05:51.853Z,74.14
2022-10-10T10:06:52.322Z,74.57
2022-10-10T10:07:50.899Z,71.47
2022-10-10T10:08:52.891Z,72.28
2022-10-10T10:09:58.253Z,74.01
2022-10-10T10:10:52.307Z,73.12
2022-10-10T10:11:54.330Z,73.44
2022-10-10T21:30:34.348Z,59.96
2022-10-10T21:31:35.440Z,62.63
2022-10-10T21:32:35.425Z,62.75
2022-10-10T21:33:35.435Z,62.02
2022-10-10T21:34:36.353Z,56.86
2022-10-10T21:35:35.419Z,62.13
2022-10-10T21:36:35.394Z,60.93
2022-10-10T21:37:35.396Z,61.45
2022-10-10T21:38:35.375Z,59.97
2022-10-10T21:39:35.393Z,63.92
2022-10-10T21:40:35.371Z,59.10
2022-10-10T21:41:35.369Z,60.33
2022-10-10T21:42:35.356Z,60.57
2022-10-10T21:43:35.342Z,61.40
2022-10-10T21:44:35.334Z,58.85
2022-10-10T21:45:37.211Z,61.70
2022-10-10T21:46:36.778Z,60.74
2022-10-10T21:47:36.314Z,60.61
2022-10-10T21:48:35.308Z,60.47
2022-10-10T21:49:35.315Z,61.14
2022-10-10T21:50:35.298Z,54.97
2022-10-10T21:51:35.285Z,58.53
2022-10-10T21:52:35.272Z,57.93
2022-10-10T21:53:35.263Z,59.36
2022-10-10T21:54:36.293Z,58.68
2022-10-10T21:55:35.249Z,59.30
2022-10-10T21:56:35.247Z,59.66
2022-10-10T21:57:35.234Z,58.32
2022-10-10T21:58:35.223Z,59.39
2022-10-10T21:59:35.230Z,57.75
2022-10-10T22:00:35.329Z,61.13
2022-10-10T22:01:35.203Z,61.53
2022-10-10T22:02:35.789Z,63.80
2022-10-10T22:03:35.185Z,59.04
2022-10-10T22:04:35.177Z,63.76
2022-10-10T22:05:35.169Z,62.27
2022-10-10T22:06:35.159Z,63.19
2022-10-10T22:07:35.154Z,60.30
2022-10-10T22:08:35.147Z,57.78
2022-10-10T22:09:35.151Z,59.06
2022-10-10T22:10:35.131Z,60.42
2022-10-10T22:11:35.111Z,62.28
2022-10-10T22:12:36.106Z,58.43
2022-10-10T22:13:35.108Z,60.88
2022-10-10T22:14:35.117Z,62.51
2022-10-10T22:15:35.088Z,64.93
2022-10-10T22:16:35.093Z,64.07
2022-10-10T22:17:35.076Z,64.37
2022-10-10T22:18:35.061Z,58.78
2022-10-10T22:19:35.070Z,56.47
2022-10-10T22:20:35.041Z,57.05
2022-10-10T22:21:35.209Z,59.70
2022-10-10T22:22:35.033Z,60.30
2022-10-10T22:23:35.052Z,61.28
2022-10-10T22:24:35.019Z,53.67
2022-10-10T22:25:35.007Z,61.06
2022-10-10T22:26:35.022Z,55.92
2022-10-10T22:27:34.995Z,56.45
2022-10-10T22:28:35.049Z,60.78
2022-10-10T22:29:34.977Z,63.42
2022-10-10T22:30:34.990Z,62.76
2022-10-10T22:31:34.979Z,66.05
2022-10-10T22:32:34.959Z,58.10
2022-10-10T22:33:34.952Z,59.39
2022-10-10T22:34:34.957Z,52.79
2022-10-10T22:35:34.932Z,60.84
2022-10-10T22:36:34.925Z,61.88
2022-10-10T22:37:34.926Z,58.68
2022-10-10T22:38:34.913Z,55.73
2022-10-10T22:39:34.904Z,58.75
2022-10-10T22:40:34.907Z,59.20
2022-10-10T22:41:34.882Z,59.14
2022-10-10T22:42:34.892Z,57.99
2022-10-10T22:43:34.871Z,58.59
2022-10-10T22:44:34.854Z,58.50
2022-10-10T22:45:34.854Z,50.39
2022-10-10T22:46:34.847Z,50.72
2022-10-10T22:47:34.830Z,51.53
2022-10-10T22:48:34.833Z,47.30
2022-10-10T22:49:34.827Z,52.69
2022-10-10T22:50:34.810Z,57.09
2022-10-10T22:51:34.810Z,53.04
2022-10-10T22:52:34.802Z,56.00
2022-10-10T22:53:34.785Z,57.92
2022-10-10T22:54:34.781Z,53.25
2022-10-10T22:55:34.773Z,60.72
2022-10-10T22:56:34.772Z,53.22
2022-10-10T22:57:34.756Z,54.19
2022-10-10T22:58:34.762Z,60.80
2022-10-10T22:59:34.739Z,48.16
2022-10-10T23:00:34.801Z,54.43
2022-10-10T23:01:34.731Z,46.84
2022-10-10T23:02:34.709Z,56.85
2022-10-10T23:03:34.742Z,59.35
2022-10-10T23:04:34.693Z,59.18
2022-10-10T23:05:34.693Z,50.56
2022-10-10T23:06:34.684Z,58.36
2022-10-10T23:07:34.667Z,57.16
2022-10-10T23:08:34.678Z,61.64
2022-10-10T23:09:34.666Z,61.30
2022-10-10T23:10:34.656Z,51.24
2022-10-10T23:11:34.645Z,49.30
2022-10-10T23:12:34.627Z,57.82
2022-10-10T23:13:34.624Z,54.86
2022-10-10T23:14:35.308Z,55.18
2022-10-10T23:15:34.609Z,52.08
2022-10-10T23:16:37.454Z,56.88
2022-10-10T23:17:35.594Z,58.43
2022-10-10T23:18:34.586Z,60.30
2022-10-10T23:19:34.590Z,58.04
2022-10-10T23:20:34.571Z,56.61
2022-10-10T23:21:34.569Z,56.03
2022-10-10T23:22:34.551Z,58.97
2022-10-10T23:23:34.546Z,55.55
2022-10-10T23:24:34.541Z,55.79
2022-10-10T23:25:35.315Z,55.41
2022-10-10T23:26:34.512Z,53.14
2022-10-10T23:27:34.509Z,56.99
2022-10-10T23:28:34.655Z,51.69
2022-10-10T23:29:34.528Z,52.18
2022-10-10T23:30:34.504Z,47.45
2022-10-10T23:31:34.477Z,53.18
2022-10-10T23:32:34.474Z,54.76
2022-10-10T23:33:36.853Z,51.85
2022-10-10T23:34:35.451Z,49.66
2022-10-10T23:35:34.448Z,53.20
2022-10-10T23:36:34.440Z,58.71
2022-10-10T23:37:34.437Z,54.62
2022-10-10T23:38:34.434Z,58.47
2022-10-10T23:39:34.418Z,56.01
2022-10-10T23:40:34.423Z,56.54
2022-10-10T23:41:34.394Z,52.22
2022-10-10T23:42:34.399Z,56.05
2022-10-10T23:43:34.389Z,60.28
2022-10-10T23:44:34.377Z,58.43
2022-10-10T23:45:34.371Z,50.34
2022-10-10T23:46:34.353Z,54.53
2022-10-10T23:47:34.355Z,54.56
2022-10-10T23:48:34.373Z,54.58
2022-10-10T23:49:34.343Z,57.90
2022-10-10T23:50:34.321Z,57.01
2022-10-10T23:51:34.312Z,52.04
2022-10-10T23:52:34.327Z,52.84
2022-10-10T23:53:34.321Z,57.83
2022-10-10T23:54:34.314Z,57.17
2022-10-10T23:55:34.277Z,49.85
2022-10-10T23:56:34.285Z,53.92
2022-10-10T23:57:34.265Z,57.47
2022-10-10T23:58:34.263Z,49.53
2022-10-10T23:59:34.247Z,50.22
